Time;durP1;ratioP1;P1;durP2;ratioP2;P2;SDS_P1;SDS_P2;PMS_P1;PMS_P2;Temp;Humidity;BMP_temperature;BMP_pressure;BME280_temperature;BME280_humidity;BME280_pressure;Samples;Min_cycle;Max_cycle;Signal;HPM_P1;HPM_P2
2021/09/12 00:00:20;;;;;;;3.75;3.15;;;25.70;56.40;;;;;;4992970;28;20018;-74
2021/09/12 00:02:47;;;;;;;4.15;3.75;;;25.70;54.10;;;;;;4994393;28;20069;-72
2021/09/12 00:05:14;;;;;;;3.75;3.35;;;25.90;55.40;;;;;;4994364;28;20101;-73
2021/09/12 00:07:42;;;;;;;4.35;3.90;;;26.00;54.20;;;;;;4994354;28;20030;-71
2021/09/12 00:10:10;;;;;;;4.13;3.75;;;26.00;54.50;;;;;;4993921;28;20513;-71
2021/09/12 00:12:38;;;;;;;4.03;3.63;;;26.10;54.40;;;;;;4992647;28;20035;-72
2021/09/12 00:15:11;;;;;;;4.10;3.70;;;26.20;54.00;;;;;;4993711;28;20467;-70
2021/09/12 00:17:38;;;;;;;4.03;3.83;;;26.20;53.50;;;;;;4994036;28;20023;-71
2021/09/12 00:20:06;;;;;;;3.83;3.58;;;26.30;54.50;;;;;;4993596;28;20026;-72
2021/09/12 00:22:34;;;;;;;4.18;3.72;;;26.40;56.30;;;;;;4993768;28;20022;-73
2021/09/12 00:25:03;;;;;;;3.47;3.28;;;26.60;53.30;;;;;;4993764;28;20418;-72
2021/09/12 00:27:30;;;;;;;3.50;3.20;;;26.60;53.10;;;;;;4993855;28;20026;-72
2021/09/12 00:29:57;;;;;;;3.30;3.00;;;26.70;54.60;;;;;;4994053;28;20036;-74
2021/09/12 00:32:25;;;;;;;3.75;3.45;;;26.70;54.80;;;;;;4992258;28;20058;-73
2021/09/12 00:34:53;;;;;;;3.03;2.83;;;26.90;54.90;;;;;;4994019;28;20036;-73
2021/09/12 00:37:20;;;;;;;3.10;2.80;;;26.80;53.20;;;;;;4993861;28;20097;-74
2021/09/12 00:39:47;;;;;;;4.60;3.60;;;26.80;54.50;;;;;;4993934;28;20041;-76
2021/09/12 00:42:15;;;;;;;3.35;3.05;;;26.80;53.90;;;;;;4993852;28;20033;-75
2021/09/12 00:44:42;;;;;;;3.35;3.03;;;26.90;55.00;;;;;;4993759;28;20018;-74
2021/09/12 00:47:12;;;;;;;3.40;3.20;;;27.00;54.70;;;;;;4992678;28;20117;-75
2021/09/12 00:49:42;;;;;;;3.50;3.30;;;27.00;53.30;;;;;;4994221;28;20463;-74
2021/09/12 00:52:14;;;;;;;3.95;3.70;;;27.30;53.40;;;;;;4993810;28;20121;-74
2021/09/12 00:54:42;;;;;;;3.22;2.92;;;27.30;52.60;;;;;;4993877;28;20045;-73
2021/09/12 00:57:12;;;;;;;3.22;3.03;;;27.40;54.00;;;;;;4993796;28;20030;-73
2021/09/12 00:59:42;;;;;;;3.80;3.30;;;27.50;53.60;;;;;;4993700;28;20092;-75
2021/09/12 01:02:11;;;;;;;3.47;3.15;;;27.70;53.20;;;;;;4993906;28;20041;-73
2021/09/12 01:04:39;;;;;;;3.80;3.50;;;27.70;52.80;;;;;;4992279;28;20026;-73
2021/09/12 01:07:08;;;;;;;4.47;3.47;;;27.70;52.90;;;;;;4992145;28;20556;-73
2021/09/12 01:09:38;;;;;;;3.78;3.47;;;27.80;51.10;;;;;;4993129;28;20078;-73
2021/09/12 01:12:07;;;;;;;3.40;3.20;;;27.90;51.90;;;;;;4992196;28;20026;-73
2021/09/12 01:14:35;;;;;;;3.40;3.20;;;28.00;52.20;;;;;;4992217;28;20363;-74
2021/09/12 01:17:03;;;;;;;3.42;3.20;;;28.20;52.50;;;;;;4997214;28;20487;-74
2021/09/12 01:19:32;;;;;;;4.07;3.78;;;28.20;51.10;;;;;;4997298;28;20463;-72
2021/09/12 01:22:03;;;;;;;3.40;3.20;;;28.20;52.60;;;;;;4997233;28;20098;-74
2021/09/12 01:24:31;;;;;;;3.72;3.40;;;28.30;50.80;;;;;;4997163;28;20034;-74
2021/09/12 01:26:59;;;;;;;3.13;2.92;;;28.10;51.20;;;;;;4995876;28;20443;-73
2021/09/12 01:29:27;;;;;;;3.17;2.97;;;28.30;51.90;;;;;;4997187;28;20048;-73
2021/09/12 01:31:55;;;;;;;4.10;3.80;;;28.60;51.20;;;;;;4995908;28;20026;-73
2021/09/12 01:34:22;;;;;;;5.03;3.13;;;28.40;50.20;;;;;;4997268;28;20464;-74
2021/09/12 01:36:49;;;;;;;3.38;3.17;;;28.40;53.00;;;;;;4995904;28;20045;-74
2021/09/12 01:39:17;;;;;;;4.50;3.10;;;28.60;52.90;;;;;;4995917;28;20041;-74
2021/09/12 01:41:44;;;;;;;5.20;3.10;;;28.90;54.20;;;;;;4997048;28;20033;-74
2021/09/12 01:44:11;;;;;;;3.08;2.80;;;28.90;50.30;;;;;;4997125;28;20026;-74
2021/09/12 01:46:46;;;;;;;2.70;2.50;;;29.00;50.70;;;;;;4997165;28;20031;-73
2021/09/12 01:49:14;;;;;;;3.00;2.80;;;29.10;49.90;;;;;;4997087;28;20035;-74
2021/09/12 01:51:42;;;;;;;2.83;2.60;;;28.90;50.20;;;;;;4995773;28;20442;-75
2021/09/12 01:54:10;;;;;;;2.50;2.40;;;29.10;50.20;;;;;;4996969;28;20050;-75
2021/09/12 01:56:37;;;;;;;2.80;2.60;;;29.20;51.10;;;;;;4996784;28;20022;-75
2021/09/12 01:59:05;;;;;;;2.42;2.30;;;29.30;50.70;;;;;;4995454;28;20034;-73
2021/09/12 02:01:32;;;;;;;2.65;2.42;;;29.40;48.60;;;;;;4996721;28;20471;-75
2021/09/12 02:03:59;;;;;;;2.80;2.60;;;29.50;48.10;;;;;;4996923;28;20416;-76
2021/09/12 02:06:27;;;;;;;2.70;2.50;;;29.70;50.90;;;;;;4995312;28;20085;-75
2021/09/12 02:08:54;;;;;;;3.17;2.95;;;29.60;49.80;;;;;;4994931;28;20470;-74
2021/09/12 02:11:21;;;;;;;2.88;2.67;;;29.50;48.10;;;;;;4996530;28;20054;-74
2021/09/12 02:13:50;;;;;;;3.17;2.97;;;29.40;47.50;;;;;;4996506;28;20019;-74
2021/09/12 02:16:17;;;;;;;3.08;2.88;;;29.70;49.50;;;;;;4995190;28;20054;-75
2021/09/12 02:18:45;;;;;;;3.80;2.92;;;29.80;47.20;;;;;;4995008;28;20533;-73
2021/09/12 02:21:12;;;;;;;2.95;2.75;;;29.90;47.80;;;;;;4996250;28;20029;-74
2021/09/12 02:23:39;;;;;;;2.67;2.47;;;29.80;48.20;;;;;;4996346;28;20379;-74
2021/09/12 02:26:07;;;;;;;3.22;2.58;;;29.90;47.50;;;;;;4995431;28;20487;-73
2021/09/12 02:28:34;;;;;;;3.85;2.97;;;30.00;46.10;;;;;;4995658;28;20156;-74
2021/09/12 02:31:01;;;;;;;3.50;2.70;;;30.00;46.80;;;;;;4996254;28;20145;-73
2021/09/12 02:33:29;;;;;;;4.75;2.95;;;30.10;45.90;;;;;;4995802;28;20501;-74
2021/09/12 02:35:56;;;;;;;3.33;2.60;;;30.00;45.20;;;;;;4995768;28;20014;-74
2021/09/12 02:38:23;;;;;;;2.58;2.20;;;30.20;45.00;;;;;;4996252;28;20022;-74
2021/09/12 02:40:51;;;;;;;3.35;2.80;;;30.30;43.80;;;;;;4994615;28;20180;-74
2021/09/12 02:43:18;;;;;;;2.67;2.33;;;30.30;44.30;;;;;;4995785;28;20049;-75
2021/09/12 02:45:45;;;;;;;3.80;2.50;;;30.40;42.00;;;;;;4995953;28;20022;-74
2021/09/12 02:48:13;;;;;;;2.85;2.63;;;30.40;41.40;;;;;;4995916;28;20041;-73
2021/09/12 02:50:40;;;;;;;5.47;2.60;;;30.30;41.80;;;;;;4995913;28;20105;-74
2021/09/12 02:53:07;;;;;;;3.72;2.65;;;30.30;41.10;;;;;;4995787;28;20102;-74
2021/09/12 02:55:35;;;;;;;3.40;2.15;;;30.40;41.30;;;;;;4995854;28;20148;-74
2021/09/12 02:58:02;;;;;;;2.80;2.20;;;30.30;41.50;;;;;;4995545;28;20019;-74
2021/09/12 03:00:29;;;;;;;2.60;2.40;;;30.40;40.70;;;;;;4995654;28;20025;-74
2021/09/12 03:02:56;;;;;;;2.42;2.20;;;30.40;41.00;;;;;;4995477;28;20030;-75
2021/09/12 03:05:24;;;;;;;2.45;2.25;;;30.40;41.00;;;;;;4994449;28;20034;-74
2021/09/12 03:07:51;;;;;;;2.50;2.30;;;30.50;41.70;;;;;;4994012;28;20030;-74
2021/09/12 03:10:19;;;;;;;5.10;2.47;;;30.60;40.70;;;;;;4994255;28;20438;-73
2021/09/12 03:12:46;;;;;;;4.07;2.35;;;30.70;40.30;;;;;;4995510;28;20113;-75
2021/09/12 03:15:13;;;;;;;6.68;2.50;;;30.70;40.10;;;;;;4995424;28;20014;-73
2021/09/12 03:17:41;;;;;;;3.20;2.53;;;30.60;40.10;;;;;;4993992;28;20030;-73
2021/09/12 03:20:09;;;;;;;2.45;2.25;;;30.60;40.30;;;;;;4994119;28;20022;-74
2021/09/12 03:22:36;;;;;;;2.78;2.30;;;30.70;40.40;;;;;;4995038;28;20022;-74
2021/09/12 03:25:05;;;;;;;4.63;2.40;;;30.60;39.10;;;;;;4995285;28;20595;-75
2021/09/12 03:27:33;;;;;;;2.50;2.30;;;30.30;37.90;;;;;;4993930;28;20466;-74
2021/09/12 03:30:00;;;;;;;6.00;2.50;;;30.40;40.20;;;;;;4994075;28;20061;-73
2021/09/12 03:32:28;;;;;;;2.97;2.60;;;30.60;38.90;;;;;;4994941;28;20114;-73
2021/09/12 03:34:55;;;;;;;3.97;2.60;;;30.70;38.70;;;;;;4993713;28;20109;-74
2021/09/12 03:37:22;;;;;;;3.17;2.97;;;30.70;38.70;;;;;;4994975;28;20124;-74
2021/09/12 03:39:50;;;;;;;2.50;2.30;;;30.70;38.50;;;;;;4993272;28;20386;-73
2021/09/12 03:42:17;;;;;;;2.92;2.40;;;30.80;39.40;;;;;;4993324;28;20117;-75
2021/09/12 03:44:44;;;;;;;2.92;2.72;;;30.90;39.10;;;;;;4994757;28;20031;-75
2021/09/12 03:47:12;;;;;;;2.75;2.55;;;31.00;39.30;;;;;;4993646;28;20026;-75
2021/09/12 03:49:39;;;;;;;2.70;2.53;;;31.10;39.70;;;;;;4994276;28;20038;-76
2021/09/12 03:52:07;;;;;;;2.83;2.60;;;31.10;40.30;;;;;;4994977;28;20030;-75
2021/09/12 03:54:34;;;;;;;2.67;2.45;;;31.00;40.10;;;;;;4994776;28;20026;-76
2021/09/12 03:57:01;;;;;;;3.65;3.00;;;31.20;39.10;;;;;;4995050;28;20014;-74
2021/09/12 03:59:28;;;;;;;3.38;2.58;;;31.00;38.00;;;;;;4994834;28;20029;-74
2021/09/12 04:01:56;;;;;;;3.55;2.75;;;30.90;37.70;;;;;;4994573;28;20463;-74
2021/09/12 04:04:23;;;;;;;4.85;2.70;;;30.70;37.50;;;;;;4994484;28;20018;-74
2021/09/12 04:06:51;;;;;;;2.60;2.50;;;30.70;37.90;;;;;;4994477;28;20032;-73
2021/09/12 04:09:18;;;;;;;5.07;3.17;;;30.70;37.90;;;;;;4994119;28;20050;-75
2021/09/12 04:11:45;;;;;;;4.72;2.80;;;30.50;37.80;;;;;;4993147;28;20026;-76
2021/09/12 04:14:13;;;;;;;3.30;3.03;;;30.30;37.70;;;;;;4994310;28;20480;-74
2021/09/12 04:16:43;;;;;;;3.13;2.83;;;30.30;37.60;;;;;;4994357;28;20022;-75
2021/09/12 04:19:11;;;;;;;3.00;2.78;;;30.40;37.80;;;;;;4994178;28;20030;-74
2021/09/12 04:21:38;;;;;;;4.57;2.88;;;30.50;38.00;;;;;;4994118;28;20471;-74
2021/09/12 04:24:06;;;;;;;2.58;2.30;;;30.70;39.10;;;;;;4993843;28;20034;-73
2021/09/12 04:26:33;;;;;;;2.40;2.20;;;30.70;38.50;;;;;;4992652;28;20026;-74
2021/09/12 04:29:01;;;;;;;2.20;2.10;;;30.60;37.50;;;;;;4994293;28;20084;-75
2021/09/12 04:31:29;;;;;;;3.67;2.28;;;30.40;38.50;;;;;;4993815;28;20096;-73
2021/09/12 04:33:57;;;;;;;2.42;2.20;;;30.40;37.50;;;;;;4992705;28;20113;-73
2021/09/12 04:36:24;;;;;;;3.03;2.38;;;30.50;37.80;;;;;;4992616;28;20019;-74
2021/09/12 04:38:52;;;;;;;3.30;2.30;;;30.50;38.70;;;;;;4993975;28;20077;-74
2021/09/12 04:41:19;;;;;;;2.47;2.38;;;30.70;39.60;;;;;;4993909;28;20455;-73
2021/09/12 04:43:46;;;;;;;2.40;2.30;;;30.60;38.20;;;;;;4993895;28;20022;-74
2021/09/12 04:46:14;;;;;;;2.35;2.25;;;30.40;38.00;;;;;;4992912;28;20019;-72
2021/09/12 04:48:41;;;;;;;2.60;2.40;;;30.30;38.30;;;;;;4993663;28;20427;-70
2021/09/12 04:51:09;;;;;;;4.82;2.30;;;30.40;38.30;;;;;;4993184;28;20084;-70
2021/09/12 04:53:36;;;;;;;2.85;2.65;;;30.30;38.60;;;;;;4993564;28;20022;-70
2021/09/12 04:56:03;;;;;;;4.28;2.70;;;30.10;37.60;;;;;;4993595;28;20030;-70
2021/09/12 04:58:31;;;;;;;2.75;2.30;;;30.10;37.80;;;;;;4993770;28;20109;-69
2021/09/12 05:00:58;;;;;;;2.95;2.20;;;30.20;38.30;;;;;;4993479;28;20018;-73
2021/09/12 05:03:25;;;;;;;2.53;2.33;;;30.20;38.30;;;;;;4993675;28;20487;-72
2021/09/12 05:05:53;;;;;;;3.22;2.50;;;30.10;38.40;;;;;;4993913;28;20030;-70
2021/09/12 05:08:20;;;;;;;6.32;3.22;;;30.10;38.40;;;;;;4993526;28;20499;-71
2021/09/12 05:10:47;;;;;;;2.55;2.40;;;29.90;37.40;;;;;;4993809;28;20030;-68
2021/09/12 05:13:14;;;;;;;3.33;2.30;;;30.00;38.80;;;;;;4994761;28;20085;-71
2021/09/12 05:15:45;;;;;;;2.63;2.40;;;29.90;38.00;;;;;;4994651;28;20443;-71
2021/09/12 05:18:14;;;;;;;4.45;2.63;;;29.90;38.00;;;;;;4992587;28;20027;-72
2021/09/12 05:20:41;;;;;;;3.90;2.55;;;29.90;37.80;;;;;;4992263;28;20463;-72
2021/09/12 05:23:08;;;;;;;3.65;2.83;;;29.70;37.80;;;;;;4993323;28;20367;-73
2021/09/12 05:25:35;;;;;;;2.50;2.28;;;29.70;38.50;;;;;;4993686;28;20053;-74
2021/09/12 05:28:03;;;;;;;2.80;2.60;;;29.80;38.10;;;;;;4993551;28;20030;-74
2021/09/12 05:30:30;;;;;;;3.03;2.53;;;29.70;37.90;;;;;;4993629;28;20475;-74
2021/09/12 05:32:58;;;;;;;3.55;2.58;;;29.70;38.00;;;;;;4993256;28;20080;-72
2021/09/12 05:35:25;;;;;;;4.95;2.80;;;29.50;38.00;;;;;;4993627;28;20634;-70
2021/09/12 05:37:53;;;;;;;3.00;2.70;;;29.40;37.80;;;;;;4993536;28;20022;-70
2021/09/12 05:40:20;;;;;;;3.40;2.70;;;29.40;38.50;;;;;;4993494;28;20022;-71
2021/09/12 05:42:48;;;;;;;5.45;3.10;;;29.40;38.00;;;;;;4993582;28;20050;-71
2021/09/12 05:45:15;;;;;;;3.00;2.80;;;29.40;38.10;;;;;;4993520;28;20080;-68
2021/09/12 05:47:42;;;;;;;3.10;2.90;;;29.30;38.00;;;;;;4993611;28;20023;-69
2021/09/12 05:50:10;;;;;;;3.30;3.05;;;29.20;38.40;;;;;;4993427;28;20438;-66
2021/09/12 05:52:37;;;;;;;3.20;2.88;;;29.10;38.90;;;;;;4993248;28;20136;-70
2021/09/12 05:55:06;;;;;;;3.05;2.50;;;29.10;38.20;;;;;;4993251;28;20383;-70
2021/09/12 05:57:33;;;;;;;4.43;2.95;;;29.10;39.40;;;;;;4993263;28;20014;-69
2021/09/12 06:00:01;;;;;;;2.80;2.60;;;29.00;40.20;;;;;;4993257;28;20031;-69
2021/09/12 06:02:29;;;;;;;3.42;2.70;;;29.00;39.00;;;;;;4995964;28;20101;-69
2021/09/12 06:04:56;;;;;;;2.78;2.58;;;29.00;39.10;;;;;;4995286;28;20404;-72
2021/09/12 06:07:23;;;;;;;4.00;2.83;;;29.00;39.20;;;;;;4996699;28;20027;-70
2021/09/12 06:09:51;;;;;;;3.20;3.00;;;28.90;39.80;;;;;;4995227;28;20050;-69
2021/09/12 06:12:18;;;;;;;3.25;2.88;;;28.80;40.50;;;;;;4996538;28;20452;-69
2021/09/12 06:14:45;;;;;;;3.65;2.95;;;28.80;39.90;;;;;;4996410;28;20022;-68
2021/09/12 06:17:13;;;;;;;3.45;3.15;;;28.80;39.60;;;;;;4996408;28;20018;-72
2021/09/12 06:19:40;;;;;;;3.20;2.90;;;28.80;39.60;;;;;;4996458;28;20387;-72
2021/09/12 06:22:08;;;;;;;4.68;3.25;;;28.70;39.80;;;;;;4996430;28;20030;-70
2021/09/12 06:24:35;;;;;;;3.30;3.00;;;28.70;39.30;;;;;;4996374;28;20029;-71
2021/09/12 06:27:02;;;;;;;3.40;3.10;;;28.60;40.00;;;;;;4996533;28;20081;-71
2021/09/12 06:29:30;;;;;;;3.60;3.00;;;28.60;39.60;;;;;;4996188;28;20028;-70
2021/09/12 06:31:57;;;;;;;3.00;2.80;;;28.50;39.70;;;;;;4996064;28;20034;-69
2021/09/12 06:34:24;;;;;;;5.32;3.17;;;28.40;39.70;;;;;;4996118;28;20022;-70
2021/09/12 06:36:52;;;;;;;2.85;2.65;;;28.30;40.90;;;;;;4995884;28;20022;-71
2021/09/12 06:39:21;;;;;;;3.78;2.83;;;28.20;40.10;;;;;;4995501;28;20025;-72
2021/09/12 06:41:48;;;;;;;3.63;2.67;;;28.30;40.50;;;;;;4995430;28;20026;-72
2021/09/12 06:44:16;;;;;;;3.95;3.00;;;28.10;41.40;;;;;;4995423;28;20026;-73
2021/09/12 06:46:43;;;;;;;3.28;2.97;;;28.10;40.50;;;;;;4994468;28;20037;-71
2021/09/12 06:49:11;;;;;;;3.55;3.25;;;28.10;40.70;;;;;;4995314;28;20459;-72
2021/09/12 06:51:39;;;;;;;3.50;3.30;;;28.00;41.10;;;;;;4995348;28;20054;-73
2021/09/12 06:54:06;;;;;;;4.43;3.20;;;27.90;40.20;;;;;;4995324;28;20019;-72
2021/09/12 06:56:33;;;;;;;5.78;2.97;;;27.90;40.40;;;;;;4995666;28;20027;-71
2021/09/12 06:59:01;;;;;;;4.43;3.10;;;27.90;40.90;;;;;;4995469;28;20077;-73
2021/09/12 07:01:28;;;;;;;5.85;2.45;;;27.80;40.50;;;;;;4995589;28;20053;-72
2021/09/12 07:03:55;;;;;;;3.00;2.70;;;27.80;40.90;;;;;;4995403;28;20022;-75
2021/09/12 07:06:23;;;;;;;4.53;2.53;;;27.60;41.80;;;;;;4995486;28;20026;-72
2021/09/12 07:08:50;;;;;;;3.20;2.90;;;27.50;41.10;;;;;;4994830;28;20499;-72
2021/09/12 07:11:17;;;;;;;4.60;3.20;;;27.50;41.80;;;;;;4994055;28;20033;-73
2021/09/12 07:13:45;;;;;;;4.40;2.70;;;27.30;42.10;;;;;;4994543;28;20027;-72
2021/09/12 07:16:12;;;;;;;3.47;2.90;;;27.30;41.40;;;;;;4995128;28;20031;-73
2021/09/12 07:18:39;;;;;;;4.03;2.90;;;27.20;41.50;;;;;;4993773;28;20030;-74
2021/09/12 07:21:10;;;;;;;4.43;2.80;;;27.20;41.80;;;;;;4994977;28;20022;-72
2021/09/12 07:23:37;;;;;;;3.30;3.00;;;27.00;42.60;;;;;;4995211;28;20030;-72
2021/09/12 07:26:05;;;;;;;3.92;2.85;;;27.00;42.00;;;;;;4994587;28;20486;-70
2021/09/12 07:28:32;;;;;;;4.07;3.08;;;26.80;42.30;;;;;;4993250;28;20026;-73
2021/09/12 07:30:59;;;;;;;3.00;2.80;;;26.80;42.40;;;;;;4993206;28;20031;-72
2021/09/12 07:33:27;;;;;;;3.08;2.80;;;26.60;43.20;;;;;;4993089;28;20064;-72
2021/09/12 07:35:54;;;;;;;3.92;3.20;;;26.70;42.40;;;;;;4993245;28;20026;-72
2021/09/12 07:38:21;;;;;;;5.15;3.80;;;26.60;43.10;;;;;;4993146;28;20033;-72
2021/09/12 07:40:49;;;;;;;3.30;3.10;;;26.50;42.80;;;;;;4994401;28;20026;-73
2021/09/12 07:43:16;;;;;;;3.67;3.38;;;26.40;42.80;;;;;;4993170;28;20041;-72
2021/09/12 07:45:43;;;;;;;4.00;2.75;;;26.30;42.40;;;;;;4994209;28;20105;-73
2021/09/12 07:48:11;;;;;;;4.10;2.90;;;26.30;42.70;;;;;;4992820;28;20022;-72
2021/09/12 07:50:38;;;;;;;2.65;2.45;;;26.20;42.80;;;;;;4992764;28;20052;-74
2021/09/12 07:53:05;;;;;;;2.80;2.60;;;26.20;42.80;;;;;;4992580;28;20538;-72
2021/09/12 07:55:34;;;;;;;4.55;3.20;;;26.00;43.10;;;;;;4994063;28;20027;-72
2021/09/12 07:58:01;;;;;;;3.42;2.80;;;26.10;42.90;;;;;;4992833;28;20072;-71
2021/09/12 08:00:28;;;;;;;3.00;2.78;;;26.00;43.50;;;;;;4992703;28;20502;-71
2021/09/12 08:02:56;;;;;;;4.75;3.08;;;26.00;42.90;;;;;;4994245;28;20028;-73
2021/09/12 08:05:23;;;;;;;3.28;2.67;;;26.00;43.10;;;;;;4994596;28;20018;-73
2021/09/12 08:07:50;;;;;;;3.38;3.08;;;26.00;43.00;;;;;;4994217;28;20467;-72
2021/09/12 08:10:18;;;;;;;6.38;2.97;;;25.90;42.90;;;;;;4994217;28;20038;-74
2021/09/12 08:12:45;;;;;;;3.20;2.92;;;25.90;43.00;;;;;;4992687;28;20023;-74
2021/09/12 08:15:13;;;;;;;3.17;2.97;;;25.90;43.00;;;;;;4994188;28;20503;-75
2021/09/12 08:17:40;;;;;;;3.42;3.10;;;25.90;43.30;;;;;;4992886;28;20379;-73
2021/09/12 08:20:08;;;;;;;3.63;3.33;;;25.90;43.70;;;;;;4993966;28;20029;-74
2021/09/12 08:22:36;;;;;;;2.55;2.33;;;25.70;43.90;;;;;;4994125;28;20029;-76
2021/09/12 08:25:04;;;;;;;2.70;2.50;;;25.60;44.20;;;;;;4993146;28;20031;-74
2021/09/12 08:27:31;;;;;;;4.15;2.50;;;25.60;44.70;;;;;;4993818;28;20031;-75
2021/09/12 08:29:59;;;;;;;4.07;2.42;;;25.40;45.00;;;;;;4993782;28;20022;-74
2021/09/12 08:32:26;;;;;;;4.15;2.53;;;25.30;45.30;;;;;;4993862;28;20030;-74
2021/09/12 08:34:53;;;;;;;3.40;3.00;;;25.20;45.60;;;;;;4993872;28;20508;-75
2021/09/12 08:37:21;;;;;;;3.45;3.20;;;25.00;45.70;;;;;;4993702;28;20554;-73
2021/09/12 08:39:48;;;;;;;4.10;3.15;;;25.00;46.10;;;;;;4992340;28;20390;-72
2021/09/12 08:42:18;;;;;;;2.92;2.70;;;25.00;46.20;;;;;;4993749;28;20101;-73
2021/09/12 08:44:47;;;;;;;4.25;3.00;;;24.90;46.50;;;;;;4993917;28;20026;-74
2021/09/12 08:47:15;;;;;;;3.80;3.30;;;24.90;47.30;;;;;;4993789;28;20038;-74
2021/09/12 08:49:43;;;;;;;6.63;3.25;;;24.70;46.90;;;;;;4993527;28;20027;-73
2021/09/12 08:52:12;;;;;;;4.38;3.03;;;24.70;47.10;;;;;;4993993;28;20030;-73
2021/09/12 08:54:40;;;;;;;3.60;3.13;;;24.70;47.30;;;;;;4993858;28;20023;-75
2021/09/12 08:57:08;;;;;;;3.00;2.80;;;24.60;47.60;;;;;;4992492;28;20109;-74
2021/09/12 08:59:36;;;;;;;5.55;3.63;;;24.50;47.80;;;;;;4992412;28;20050;-73
2021/09/12 09:02:06;;;;;;;5.20;3.47;;;24.40;48.20;;;;;;4993431;28;20026;-72
2021/09/12 09:04:35;;;;;;;4.80;3.55;;;24.30;48.80;;;;;;4993647;28;20022;-74
2021/09/12 09:07:06;;;;;;;6.65;3.50;;;24.20;49.40;;;;;;4993738;28;20088;-73
2021/09/12 09:09:45;;;;;;;5.82;3.22;;;24.20;49.90;;;;;;4991955;28;20145;-74
2021/09/12 09:12:22;;;;;;;3.80;3.22;;;24.10;50.00;;;;;;4993651;28;20081;-74
2021/09/12 09:15:11;;;;;;;13.32;4.47;;;24.10;50.90;;;;;;4992300;28;20537;-72
2021/09/12 09:17:41;;;;;;;4.07;3.38;;;24.00;51.60;;;;;;4992110;28;20018;-73
2021/09/12 09:20:11;;;;;;;4.85;3.38;;;23.90;52.50;;;;;;4993583;28;20357;-73
2021/09/12 09:22:41;;;;;;;4.60;3.83;;;23.70;53.10;;;;;;4993752;28;20519;-74
2021/09/12 09:25:20;;;;;;;4.35;3.60;;;23.70;53.30;;;;;;4992269;28;20022;-75
2021/09/12 09:28:01;;;;;;;4.35;3.20;;;23.70;53.80;;;;;;4993452;28;20475;-75
2021/09/12 09:30:49;;;;;;;4.95;3.10;;;23.60;54.30;;;;;;4992106;28;20372;-74
2021/09/12 09:33:25;;;;;;;5.85;3.65;;;23.40;54.90;;;;;;4985379;28;20065;-74
2021/09/12 09:36:14;;;;;;;7.30;4.07;;;23.40;55.40;;;;;;4992704;28;20026;-75
2021/09/12 09:38:46;;;;;;;5.90;3.47;;;23.30;56.10;;;;;;4997186;28;20018;-75
2021/09/12 09:41:17;;;;;;;5.60;3.60;;;23.20;56.40;;;;;;4997093;28;20502;-74
2021/09/12 09:43:50;;;;;;;6.07;3.75;;;23.10;56.60;;;;;;4997634;28;20126;-76
2021/09/12 09:46:35;;;;;;;7.22;3.72;;;23.10;57.40;;;;;;4996090;28;20125;-75
2021/09/12 09:49:25;;;;;;;4.05;3.67;;;23.00;57.60;;;;;;4997542;28;20023;-77
2021/09/12 09:52:00;;;;;;;5.97;4.20;;;23.00;57.90;;;;;;4989975;28;20463;-74
2021/09/12 09:54:31;;;;;;;5.72;4.28;;;22.90;58.10;;;;;;4996439;28;20430;-74
2021/09/12 09:56:58;;;;;;;;;;;22.90;58.50;;;;;;4996384;28;20502;-73
2021/09/12 09:59:31;;;;;;;5.85;3.97;;;22.90;58.70;;;;;;4997132;28;19909;-74
2021/09/12 10:01:59;;;;;;;6.05;3.63;;;22.80;59.00;;;;;;4997026;28;20039;-74
2021/09/12 10:04:28;;;;;;;5.97;4.15;;;22.80;59.00;;;;;;4995298;28;20050;-73
2021/09/12 10:07:00;;;;;;;4.55;3.90;;;22.80;58.90;;;;;;4996620;28;20034;-77
2021/09/12 10:09:27;;;;;;;4.20;3.80;;;22.80;59.30;;;;;;4996134;28;20066;-74
2021/09/12 10:12:07;;;;;;;4.50;3.92;;;22.80;59.90;;;;;;4994765;28;20026;-74
2021/09/12 10:14:48;;;;;;;4.95;3.70;;;22.70;59.50;;;;;;4996026;28;20019;-75
2021/09/12 10:17:21;;;;;;;6.13;3.63;;;22.60;60.00;;;;;;4995116;28;20064;-73
2021/09/12 10:19:49;;;;;;;6.43;3.92;;;22.60;60.00;;;;;;4994758;28;20022;-74
2021/09/12 10:22:20;;;;;;;7.13;3.58;;;22.50;60.20;;;;;;4995871;28;20033;-76
2021/09/12 10:25:02;;;;;;;6.68;3.63;;;22.40;60.80;;;;;;4995675;28;20053;-74
2021/09/12 10:27:44;;;;;;;5.20;3.58;;;22.40;61.00;;;;;;4995846;28;20452;-74
2021/09/12 10:30:24;;;;;;;5.43;3.90;;;22.30;61.40;;;;;;4995782;28;20022;-75
2021/09/12 10:32:54;;;;;;;8.70;4.00;;;22.20;61.50;;;;;;4995659;28;20030;-76
2021/09/12 10:35:29;;;;;;;8.20;4.38;;;22.20;61.40;;;;;;4994438;28;20101;-75
2021/09/12 10:38:11;;;;;;;6.43;3.90;;;22.20;61.60;;;;;;4978684;28;20037;-76
2021/09/12 10:40:48;;;;;;;5.00;3.50;;;22.10;61.50;;;;;;4994395;28;20025;-75
2021/09/12 10:43:28;;;;;;;8.43;4.43;;;22.10;61.40;;;;;;4995662;28;20023;-76
2021/09/12 10:46:04;;;;;;;5.88;4.28;;;22.10;61.40;;;;;;4994263;28;20072;-76
2021/09/12 10:48:33;;;;;;;7.07;3.40;;;22.10;62.20;;;;;;4994468;28;20030;-74
2021/09/12 10:51:08;;;;;;;5.75;2.97;;;22.10;60.10;;;;;;4993831;28;20105;-76
2021/09/12 10:56:12;;;;;;;6.60;3.50;;;22.10;60.00;;;;;;4995625;28;20038;-74
2021/09/12 10:58:42;;;;;;;;;;;22.10;60.30;;;;;;4996057;28;20085;-76
2021/09/12 11:01:13;;;;;;;6.68;3.60;;;22.00;60.60;;;;;;4995208;28;19905;-75
2021/09/12 11:03:46;;;;;;;7.50;3.63;;;22.00;60.50;;;;;;4995075;28;20026;-75
2021/09/12 11:06:17;;;;;;;4.35;3.40;;;21.90;60.50;;;;;;4995161;28;20022;-71
2021/09/12 11:08:45;;;;;;;4.93;3.00;;;21.80;61.10;;;;;;4993519;28;20050;-76
2021/09/12 11:11:12;;;;;;;5.25;3.58;;;21.80;61.10;;;;;;4993733;28;20022;-73
2021/09/12 11:13:40;;;;;;;4.22;2.90;;;21.70;61.60;;;;;;4994842;28;20129;-74
2021/09/12 11:16:18;;;;;;;6.32;3.30;;;21.60;61.80;;;;;;4993537;28;20410;-75
2021/09/12 11:19:00;;;;;;;12.07;4.03;;;21.40;74.30;;;;;;4994833;28;20036;-73
2021/09/12 11:21:40;;;;;;;15.48;4.80;;;21.10;83.80;;;;;;4993561;28;20027;-75
2021/09/12 11:24:09;;;;;;;14.68;4.65;;;20.80;90.10;;;;;;4993524;28;20109;-74
2021/09/12 11:26:41;;;;;;;14.02;5.45;;;20.50;92.00;;;;;;4994694;28;20081;-73
2021/09/12 11:29:11;;;;;;;13.50;5.07;;;20.30;93.50;;;;;;4993156;28;20394;-74
2021/09/12 11:31:40;;;;;;;16.13;5.18;;;20.10;94.90;;;;;;4994738;28;20029;-72
2021/09/12 11:34:08;;;;;;;13.10;4.32;;;20.00;95.50;;;;;;4994603;28;20023;-74
2021/09/12 11:37:08;;;;;;;12.85;4.07;;;20.00;96.10;;;;;;4993234;28;20023;-74
2021/09/12 11:39:47;;;;;;;11.43;5.10;;;19.90;96.10;;;;;;4993291;28;20542;-74
2021/09/12 11:42:18;;;;;;;11.50;4.88;;;19.90;96.20;;;;;;4993099;28;20077;-74
2021/09/12 11:44:56;;;;;;;12.05;4.10;;;19.90;96.20;;;;;;4993143;28;20062;-74
2021/09/12 11:47:25;;;;;;;8.60;4.47;;;19.90;94.90;;;;;;4994261;28;20072;-74
2021/09/12 11:50:04;;;;;;;7.43;4.15;;;20.00;92.90;;;;;;4994251;28;20033;-74
2021/09/12 11:52:37;;;;;;;8.23;4.13;;;20.00;90.20;;;;;;4994155;28;20109;-74
2021/09/12 11:55:28;;;;;;;7.32;3.33;;;20.00;90.80;;;;;;4992999;28;20033;-73
2021/09/12 11:58:07;;;;;;;9.48;3.95;;;20.00;91.10;;;;;;4992870;28;20034;-73
2021/09/12 12:00:42;;;;;;;4.65;3.38;;;19.90;90.00;;;;;;4993858;28;20102;-73
2021/09/12 12:03:12;;;;;;;3.28;2.85;;;19.80;88.40;;;;;;4994099;28;20026;-74
2021/09/12 12:05:44;;;;;;;3.35;2.83;;;19.70;87.00;;;;;;4992999;28;20033;-74
2021/09/12 12:08:17;;;;;;;3.30;3.00;;;19.50;86.30;;;;;;4993853;28;20023;-74
2021/09/12 12:10:44;;;;;;;3.33;2.58;;;19.30;86.50;;;;;;4992672;28;20045;-74
2021/09/12 12:13:12;;;;;;;4.40;2.80;;;19.20;86.60;;;;;;4993821;28;20034;-74
2021/09/12 12:15:46;;;;;;;4.78;2.75;;;19.10;87.10;;;;;;4993876;28;20018;-73
2021/09/12 12:18:22;;;;;;;3.17;2.65;;;18.90;87.30;;;;;;4993844;28;20397;-74
2021/09/12 12:20:49;;;;;;;3.10;2.63;;;18.80;87.40;;;;;;4993846;28;20542;-74
2021/09/12 12:23:20;;;;;;;5.03;3.25;;;18.70;87.80;;;;;;4993742;28;20482;-74
2021/09/12 12:25:48;;;;;;;6.32;3.15;;;18.60;88.00;;;;;;4993794;28;20069;-74
2021/09/12 12:28:24;;;;;;;4.18;2.92;;;18.60;88.00;;;;;;4993677;28;20026;-73
2021/09/12 12:31:16;;;;;;;3.50;3.20;;;18.50;88.00;;;;;;4992301;28;20033;-74
2021/09/12 12:33:46;;;;;;;3.80;2.90;;;18.30;87.90;;;;;;4993579;28;20073;-74
2021/09/12 12:36:16;;;;;;;3.28;2.72;;;18.30;88.20;;;;;;4992336;28;20022;-74
2021/09/12 12:38:45;;;;;;;3.38;3.00;;;18.20;88.40;;;;;;4992339;28;20038;-74
2021/09/12 12:41:21;;;;;;;3.95;3.10;;;18.20;89.50;;;;;;4993044;28;20372;-74
2021/09/12 12:43:48;;;;;;;6.57;2.90;;;18.00;89.10;;;;;;4992210;28;20050;-73
2021/09/12 12:46:15;;;;;;;5.07;2.80;;;17.90;89.50;;;;;;4993423;28;20026;-73
2021/09/12 12:48:43;;;;;;;5.53;2.70;;;17.80;88.90;;;;;;4992159;28;20436;-73
2021/09/12 12:51:20;;;;;;;3.95;2.80;;;17.60;88.60;;;;;;4993343;28;20023;-73
2021/09/12 12:53:55;;;;;;;2.92;2.72;;;17.40;88.30;;;;;;4993675;28;20505;-73
2021/09/12 12:56:28;;;;;;;3.03;2.83;;;17.30;88.30;;;;;;4992097;28;20116;-73
2021/09/12 12:59:08;;;;;;;3.08;2.78;;;17.20;87.60;;;;;;4992090;28;20480;-73
2021/09/12 13:01:35;;;;;;;3.22;2.58;;;17.20;88.60;;;;;;4992141;28;20045;-73